Sinsheim, Germany

10:06 PM CEST on July 26, 2016 (GMT +0200)
Stuttgart | | Change Station

Elev 1283 ft 48.69 °N, 9.23 °E | Updated 16 minutes ago

Mostly Cloudy
Mostly Cloudy
73 °F
Feels Like 73 °F
N
7
Wind Variable Wind from NW

Today
High -- | Low -- °F
--% Chance of Precip.
Yesterday
High -- | Low -- °F
Precip. -- in
Pressure 30.09 in
Visibility 6.2 miles
Clouds Few 4500 ft
Mostly Cloudy 30000 ft
Dew Point 63 °F
Humidity 69%
Rainfall 0.00 in
Snow Depth Not available.
5:48 AM 9:12 PM
Waning Gibbous, 51% visible
METAR EDDS 261950Z 31006KT 9999 FEW045CB BKN300 23/17 Q1019 TEMPO TSRA
Pressure 30.09 in
Visibility 6.2 miles
Clouds Few 4500 ft
Mostly Cloudy 30000 ft
Dew Point 63 °F
Humidity 69%
Rainfall 0.00 in
Snow Depth Not available.
5:48 AM 9:12 PM
Waning Gibbous, 51% visible
METAR EDDS 261950Z 31006KT 9999 FEW045CB BKN300 23/17 Q1019 TEMPO TSRA

10-Day Weather Forecast

×

Almanac

Astronomy

Jul. 26, 2016 Rise Set
Actual Time
Civil Twilight
Nautical Twilight
Astronomical Twilight
Moon
Length of Visible Light
Length of Day
Tomorrow will be .
, % of the Moon is Illuminated

Today's Extremes

Country Highs Country Lows

Community

WunderPhotos

Upload Photos

1,927,678 photos uploaded!

WunderBlog® & News

Nearby

Air Quality

  Air Quality AQ Index Pollutant
Not available.

Snow Depth

Station Depth Elevation

Earthquake Activity

City Distance Mag. Time & Date
Minimum magnitude displayed is 2.5.

Coastal Water Temperatures

Place Temperature

Stations

Nearby Weather Stations

Station Location Temp. Windchill Dew Point Humidity Wind Precip. Elev Updated Type